Time,TemperatureF,DewpointF,PressureIn,WindDirection,WindDirectionDegrees,WindSpeedMPH,WindSpeedGustMPH,Humidity,HourlyPrecipIn,Conditions,Clouds,dailyrainin,SolarRadiationWatts/m^2,SoftwareType,DateUTC
2013-03-14 00:10:00,42.0,28.0,30.28,WSW,241,5.0,7.0,58,-99.99,,,-99.99,0.000000,,2013-03-14 07:10:00,
2013-03-14 00:52:00,42.0,28.0,30.28,WSW,241,5.0,7.0,58,-99.99,,,-99.99,0.000000,,2013-03-14 07:52:00,
2013-03-14 01:02:00,42.0,28.0,30.28,WSW,241,5.0,7.0,58,-99.99,,,-99.99,0.000000,,2013-03-14 08:02:00,
2013-03-14 01:10:00,42.0,26.0,30.28,East,93,2.0,5.0,53,-99.99,,,-99.99,0.000000,,2013-03-14 08:10:00,
2013-03-14 01:51:00,42.0,26.0,30.28,East,93,2.0,5.0,53,-99.99,,,-99.99,0.000000,,2013-03-14 08:51:00,
2013-03-14 02:01:00,42.0,26.0,30.28,East,93,2.0,5.0,53,-99.99,,,-99.99,0.000000,,2013-03-14 09:01:00,
2013-03-14 02:10:00,41.0,27.0,30.29,WSW,250,3.0,5.0,56,-99.99,,,-99.99,0.000000,,2013-03-14 09:10:00,
2013-03-14 02:52:00,41.0,27.0,30.29,WSW,250,3.0,5.0,56,-99.99,,,-99.99,0.000000,,2013-03-14 09:52:00,
2013-03-14 03:02:00,41.0,27.0,30.29,WSW,250,3.0,5.0,56,-99.99,,,-99.99,0.000000,,2013-03-14 10:02:00,
2013-03-14 03:10:00,39.0,26.0,30.28,WNW,296,4.0,5.0,60,-99.99,,,-99.99,0.000000,,2013-03-14 10:10:00,
2013-03-14 03:52:00,39.0,26.0,30.28,WNW,296,4.0,5.0,60,-99.99,,,-99.99,0.000000,,2013-03-14 10:52:00,
2013-03-14 04:02:00,39.0,26.0,30.28,WNW,296,4.0,5.0,60,-99.99,,,-99.99,0.000000,,2013-03-14 11:02:00,
2013-03-14 04:10:00,38.0,25.0,30.27,NW,318,5.0,5.0,61,-99.99,,,-99.99,0.000000,,2013-03-14 11:10:00,
2013-03-14 04:52:00,38.0,25.0,30.27,NW,318,5.0,5.0,61,-99.99,,,-99.99,0.000000,,2013-03-14 11:52:00,
2013-03-14 05:02:00,38.0,25.0,30.27,NW,318,5.0,5.0,61,-99.99,,,-99.99,0.000000,,2013-03-14 12:02:00,
2013-03-14 05:10:00,39.0,25.0,30.28,NW,318,4.0,5.0,57,-99.99,,,-99.99,0.000000,,2013-03-14 12:10:00,
2013-03-14 05:52:00,39.0,25.0,30.28,NW,318,4.0,5.0,57,-99.99,,,-99.99,0.000000,,2013-03-14 12:52:00,
2013-03-14 06:02:00,39.0,25.0,30.28,NW,318,4.0,5.0,57,-99.99,,,-99.99,0.000000,,2013-03-14 13:02:00,
2013-03-14 06:10:00,34.0,26.0,30.29,SW,236,1.0,3.0,70,-99.99,,,-99.99,0.000000,,2013-03-14 13:10:00,
2013-03-14 06:52:00,34.0,26.0,30.29,SW,236,1.0,3.0,70,-99.99,,,-99.99,0.000000,,2013-03-14 13:52:00,
2013-03-14 07:02:00,34.0,26.0,30.29,SW,236,1.0,3.0,70,-99.99,,,-99.99,0.000000,,2013-03-14 14:02:00,
2013-03-14 07:10:00,32.0,26.0,30.30,West,276,5.0,6.0,78,-99.99,,,-99.99,10.000000,,2013-03-14 14:10:00,
2013-03-14 07:52:00,32.0,26.0,30.30,West,276,5.0,6.0,78,-99.99,,,-99.99,10.000000,,2013-03-14 14:52:00,
2013-03-14 08:02:00,32.0,26.0,30.30,West,276,5.0,6.0,78,-99.99,,,-99.99,10.000000,,2013-03-14 15:02:00,
2013-03-14 10:10:00,52.0,27.0,30.33,NE,40,3.0,5.0,37,-99.99,,,-99.99,560.000000,,2013-03-14 17:10:00,
2013-03-14 10:52:00,52.0,27.0,30.33,NE,40,3.0,5.0,37,-99.99,,,-99.99,560.000000,,2013-03-14 17:52:00,
2013-03-14 11:02:00,52.0,27.0,30.33,NE,40,3.0,5.0,37,-99.99,,,-99.99,560.000000,,2013-03-14 18:02:00,
2013-03-14 11:10:00,58.0,27.0,30.32,NNW,332,2.0,6.0,30,-99.99,,,-99.99,520.000000,,2013-03-14 18:10:00,
2013-03-14 11:52:00,58.0,27.0,30.32,NNW,332,2.0,6.0,30,-99.99,,,-99.99,520.000000,,2013-03-14 18:52:00,
2013-03-14 12:02:00,58.0,27.0,30.32,NNW,332,2.0,6.0,30,-99.99,,,-99.99,520.000000,,2013-03-14 19:02:00,
2013-03-14 13:52:00,65.0,27.0,30.26,WNW,289,3.0,5.0,23,-99.99,,,-99.99,350.000000,,2013-03-14 20:52:00,
2013-03-14 14:02:00,65.0,27.0,30.26,WNW,289,3.0,5.0,23,-99.99,,,-99.99,350.000000,,2013-03-14 21:02:00,
2013-03-14 15:10:00,76.0,16.0,30.18,West,264,8.0,20.0,10,-99.99,,,-99.99,740.000000,,2013-03-14 22:10:00,
2013-03-14 15:52:00,76.0,16.0,30.18,West,264,8.0,20.0,10,-99.99,,,-99.99,740.000000,,2013-03-14 22:52:00,
2013-03-14 16:02:00,76.0,16.0,30.18,West,264,8.0,20.0,10,-99.99,,,-99.99,740.000000,,2013-03-14 23:02:00,